Time;durP1;ratioP1;P1;durP2;ratioP2;P2;SDS_P1;SDS_P2;PMS_P1;PMS_P2;Temp;Humidity;BMP_temperature;BMP_pressure;BME280_temperature;BME280_humidity;BME280_pressure;Samples;Min_cycle;Max_cycle;Signal;HPM_P1;HPM_P2
2021/10/09 00:02:15;;;;;;;38.17;19.17;;;;;;;;;;4978864;28;20048;-62
2021/10/09 00:04:43;;;;;;;39.83;18.80;;;;;;;;;;4977261;28;20904;-60
2021/10/09 00:07:08;;;;;;;41.53;20.23;;;;;;;;;;4962314;28;22113;-60
2021/10/09 00:09:34;;;;;;;37.53;18.35;;;;;;;;;;4965506;28;20034;-60
2021/10/09 00:12:02;;;;;;;40.38;19.67;;;;;;;;;;4958691;28;20054;-60
2021/10/09 00:14:30;;;;;;;44.15;20.67;;;;;;;;;;4960460;28;20034;-60
2021/10/09 00:16:55;;;;;;;40.38;19.27;;;;;;;;;;4978987;28;20062;-60
2021/10/09 00:19:21;;;;;;;44.63;20.30;;;;;;;;;;4978415;28;20132;-60
2021/10/09 00:21:46;;;;;;;38.38;18.73;;;;;;;;;;4949366;28;20038;-60
2021/10/09 00:24:15;;;;;;;38.03;19.50;;;;;;;;;;4960056;28;20026;-60
2021/10/09 00:26:41;;;;;;;42.67;20.10;;;;;;;;;;4977552;28;20015;-59
2021/10/09 00:29:10;;;;;;;38.03;18.63;;;;;;;;;;4962186;28;20406;-60
2021/10/09 00:31:35;;;;;;;43.80;18.75;;;;;;;;;;4948632;28;21182;-60
2021/10/09 00:34:01;;;;;;;36.78;18.70;;;;;;;;;;4965365;28;20149;-60
2021/10/09 00:36:26;;;;;;;43.17;20.23;;;;;;;;;;4977808;28;20038;-60
2021/10/09 00:38:54;;;;;;;34.58;18.17;;;;;;;;;;4965517;28;20070;-60
2021/10/09 00:41:20;;;;;;;44.00;18.98;;;;;;;;;;4978700;28;20108;-59
2021/10/09 00:43:48;;;;;;;41.65;18.55;;;;;;;;;;4960442;28;20034;-60
2021/10/09 00:46:16;;;;;;;37.10;17.98;;;;;;;;;;4976680;28;20118;-60
2021/10/09 00:48:42;;;;;;;35.67;17.80;;;;;;;;;;4963175;28;20040;-59
2021/10/09 00:51:12;;;;;;;41.75;19.13;;;;;;;;;;4977249;28;20105;-60
2021/10/09 00:53:40;;;;;;;41.38;19.30;;;;;;;;;;4964260;28;20034;-60
2021/10/09 00:56:06;;;;;;;41.53;19.00;;;;;;;;;;4965947;28;20034;-59
2021/10/09 00:58:33;;;;;;;41.88;19.23;;;;;;;;;;4963922;28;21422;-59
2021/10/09 01:00:58;;;;;;;43.17;18.75;;;;;;;;;;4967139;28;20605;-60
2021/10/09 01:03:24;;;;;;;45.78;20.02;;;;;;;;;;4976074;28;20026;-59
2021/10/09 01:05:52;;;;;;;41.80;19.27;;;;;;;;;;4979376;28;20022;-60
2021/10/09 01:08:17;;;;;;;42.25;19.45;;;;;;;;;;4969969;28;20102;-60
2021/10/09 01:10:43;;;;;;;41.72;19.25;;;;;;;;;;4981296;28;20083;-60
2021/10/09 01:13:08;;;;;;;42.05;19.30;;;;;;;;;;4965162;28;20434;-60
2021/10/09 01:15:34;;;;;;;40.35;18.40;;;;;;;;;;4980415;28;20034;-60
2021/10/09 01:18:13;;;;;;;39.95;18.45;;;;;;;;;;4983017;28;20050;-60
2021/10/09 01:20:46;;;;;;;41.25;18.60;;;;;;;;;;4981047;28;20895;-60
2021/10/09 01:23:15;;;;;;;37.25;18.40;;;;;;;;;;4967298;28;20043;-60
2021/10/09 01:25:41;;;;;;;44.03;18.63;;;;;;;;;;4978110;28;20633;-62
2021/10/09 01:28:09;;;;;;;40.70;18.80;;;;;;;;;;4965193;28;20983;-59
2021/10/09 01:30:34;;;;;;;40.53;18.63;;;;;;;;;;4981813;28;20049;-60
2021/10/09 01:33:02;;;;;;;44.15;18.10;;;;;;;;;;4980997;28;20081;-59
2021/10/09 01:35:28;;;;;;;41.70;17.42;;;;;;;;;;4965810;28;20038;-60
2021/10/09 01:37:53;;;;;;;45.67;18.85;;;;;;;;;;4964534;28;20050;-60
2021/10/09 01:40:24;;;;;;;41.88;18.70;;;;;;;;;;4981546;28;20785;-60
2021/10/09 01:42:49;;;;;;;38.45;18.48;;;;;;;;;;4965785;28;20039;-60
2021/10/09 01:45:15;;;;;;;40.67;17.02;;;;;;;;;;4979738;28;20609;-60
2021/10/09 01:47:43;;;;;;;43.42;17.98;;;;;;;;;;4970687;28;20154;-59
2021/10/09 01:50:09;;;;;;;49.20;19.45;;;;;;;;;;4966474;28;20025;-59
2021/10/09 01:52:35;;;;;;;43.03;18.77;;;;;;;;;;4964420;28;20038;-59
2021/10/09 01:55:05;;;;;;;44.13;19.42;;;;;;;;;;4963839;28;20652;-60
2021/10/09 01:57:31;;;;;;;51.80;20.98;;;;;;;;;;4980117;28;20084;-60
2021/10/09 01:59:56;;;;;;;49.13;19.45;;;;;;;;;;4965588;28;20956;-60
2021/10/09 02:02:22;;;;;;;46.22;21.13;;;;;;;;;;4979892;28;20528;-60
2021/10/09 02:04:47;;;;;;;51.45;19.70;;;;;;;;;;4965125;28;20035;-60
2021/10/09 02:07:20;;;;;;;49.13;19.45;;;;;;;;;;4966896;28;20030;-61
2021/10/09 02:09:45;;;;;;;46.25;20.80;;;;;;;;;;4964877;28;20050;-60
2021/10/09 02:12:15;;;;;;;46.30;18.92;;;;;;;;;;4965858;28;20097;-60
2021/10/09 02:14:50;;;;;;;49.35;19.48;;;;;;;;;;4967385;28;20026;-60
2021/10/09 02:17:48;;;;;;;40.92;18.48;;;;;;;;;;4966311;28;20042;-60
2021/10/09 02:25:47;;;;;;;54.38;20.55;;;;;;;;;;4966857;28;20034;-60
2021/10/09 02:28:13;;;;;;;53.30;22.00;;;;;;;;;;4965459;28;20073;-59
2021/10/09 02:30:41;;;;;;;47.50;21.20;;;;;;;;;;4980277;28;20038;-59
2021/10/09 02:33:09;;;;;;;56.85;22.05;;;;;;;;;;4966938;28;20026;-58
2021/10/09 02:35:37;;;;;;;53.42;23.23;;;;;;;;;;4965154;28;20042;-59
2021/10/09 02:38:04;;;;;;;53.65;22.38;;;;;;;;;;4969516;28;20038;-60
2021/10/09 02:40:29;;;;;;;53.45;21.48;;;;;;;;;;4963921;28;20022;-59
2021/10/09 02:42:55;;;;;;;58.40;23.23;;;;;;;;;;4980069;28;20034;-59
2021/10/09 02:45:20;;;;;;;59.15;23.30;;;;;;;;;;4981248;28;20023;-59
2021/10/09 02:47:48;;;;;;;59.28;22.92;;;;;;;;;;4967615;28;20042;-59
2021/10/09 02:50:14;;;;;;;56.60;23.98;;;;;;;;;;4966937;28;20034;-59
2021/10/09 02:52:44;;;;;;;61.28;23.60;;;;;;;;;;4966581;28;20039;-59
2021/10/09 02:55:10;;;;;;;60.58;24.10;;;;;;;;;;4964411;28;20074;-59
2021/10/09 02:57:36;;;;;;;70.55;24.98;;;;;;;;;;4980592;28;20030;-59
2021/10/09 03:00:02;;;;;;;62.38;24.40;;;;;;;;;;4965477;28;20498;-59
2021/10/09 03:02:30;;;;;;;70.63;25.08;;;;;;;;;;4980483;28;20027;-60
2021/10/09 03:04:55;;;;;;;70.10;24.40;;;;;;;;;;4981443;28;20086;-59
2021/10/09 03:07:23;;;;;;;64.50;22.15;;;;;;;;;;4964448;28;20038;-60
2021/10/09 03:09:51;;;;;;;69.28;23.58;;;;;;;;;;4966370;28;20038;-59
2021/10/09 03:12:19;;;;;;;113.97;23.77;;;;;;;;;;4965442;28;20062;-60
2021/10/09 03:14:45;;;;;;;68.53;21.42;;;;;;;;;;4966407;28;20047;-60
2021/10/09 03:17:13;;;;;;;77.30;23.33;;;;;;;;;;4964140;28;20037;-59
2021/10/09 03:19:39;;;;;;;95.45;22.83;;;;;;;;;;4966578;28;20161;-58
2021/10/09 03:22:04;;;;;;;70.47;22.80;;;;;;;;;;4978102;28;20513;-58
2021/10/09 03:24:30;;;;;;;80.43;23.02;;;;;;;;;;4965586;28;21060;-60
2021/10/09 03:26:58;;;;;;;83.65;22.13;;;;;;;;;;4946066;28;20026;-59
2021/10/09 03:29:26;;;;;;;87.30;22.70;;;;;;;;;;4979295;28;20046;-59
2021/10/09 03:31:52;;;;;;;59.30;19.17;;;;;;;;;;4978890;28;20118;-59
2021/10/09 03:34:19;;;;;;;97.88;21.60;;;;;;;;;;4979383;28;20056;-59
2021/10/09 03:36:45;;;;;;;73.28;19.35;;;;;;;;;;4962035;28;20961;-59
2021/10/09 03:39:19;;;;;;;80.30;19.98;;;;;;;;;;4965376;28;20153;-59
2021/10/09 03:41:53;;;;;;;83.53;19.95;;;;;;;;;;4978708;28;20042;-59
2021/10/09 03:44:19;;;;;;;80.00;19.83;;;;;;;;;;4964804;28;20061;-59
2021/10/09 03:47:01;;;;;;;95.10;20.83;;;;;;;;;;4949552;28;20185;-59
2021/10/09 03:54:47;;;;;;;73.88;21.02;;;;;;;;;;4979659;28;20305;-59
2021/10/09 03:57:20;;;;;;;85.80;20.75;;;;;;;;;;4963374;28;20053;-59
2021/10/09 03:59:47;;;;;;;59.83;20.30;;;;;;;;;;4963298;28;20045;-60
2021/10/09 04:02:15;;;;;;;85.72;20.48;;;;;;;;;;4964435;28;20493;-58
2021/10/09 04:04:43;;;;;;;64.78;20.08;;;;;;;;;;4965941;28;20030;-59
2021/10/09 04:07:11;;;;;;;65.30;20.20;;;;;;;;;;4977899;28;20697;-59
2021/10/09 04:09:37;;;;;;;43.00;19.27;;;;;;;;;;4965794;28;20026;-59
2021/10/09 04:12:03;;;;;;;57.75;19.98;;;;;;;;;;4978938;28;20109;-59
2021/10/09 04:14:28;;;;;;;52.05;19.83;;;;;;;;;;4948022;28;20046;-59
2021/10/09 04:16:54;;;;;;;57.90;19.35;;;;;;;;;;4962789;28;20045;-59
2021/10/09 04:19:19;;;;;;;77.03;19.83;;;;;;;;;;4980032;28;20045;-59
2021/10/09 04:21:45;;;;;;;54.80;18.65;;;;;;;;;;4978689;28;20031;-59
2021/10/09 04:24:18;;;;;;;43.95;19.02;;;;;;;;;;4965980;28;20172;-59
2021/10/09 04:26:45;;;;;;;54.72;19.75;;;;;;;;;;4979590;28;20137;-59
2021/10/09 04:29:13;;;;;;;60.60;19.95;;;;;;;;;;4964832;28;20031;-59
2021/10/09 04:31:39;;;;;;;60.88;18.17;;;;;;;;;;4984431;28;20040;-58
2021/10/09 04:34:05;;;;;;;80.13;18.40;;;;;;;;;;4983150;28;20061;-59
2021/10/09 04:36:30;;;;;;;72.72;17.67;;;;;;;;;;4966388;28;20359;-60
2021/10/09 04:38:55;;;;;;;49.85;18.50;;;;;;;;;;4969313;28;20038;-59
2021/10/09 04:41:21;;;;;;;63.80;18.33;;;;;;;;;;4967045;28;20224;-59
2021/10/09 04:43:46;;;;;;;75.93;19.25;;;;;;;;;;4968086;28;20022;-59
2021/10/09 04:46:14;;;;;;;50.08;19.35;;;;;;;;;;4970468;28;20039;-59
2021/10/09 04:48:39;;;;;;;49.45;18.58;;;;;;;;;;4954384;28;20042;-59
2021/10/09 04:51:05;;;;;;;51.42;19.05;;;;;;;;;;4982064;28;20134;-59
2021/10/09 04:53:30;;;;;;;51.95;19.15;;;;;;;;;;4969726;28;20038;-59
2021/10/09 04:55:56;;;;;;;65.57;19.05;;;;;;;;;;4982623;28;20108;-59
2021/10/09 04:58:21;;;;;;;66.28;20.73;;;;;;;;;;4981091;28;20145;-59
2021/10/09 05:00:51;;;;;;;73.32;19.73;;;;;;;;;;4969621;28;20149;-59
2021/10/09 05:03:19;;;;;;;87.03;20.52;;;;;;;;;;4967991;28;20034;-59
2021/10/09 05:05:45;;;;;;;62.90;19.60;;;;;;;;;;4967131;28;20026;-59
2021/10/09 05:08:14;;;;;;;73.70;21.20;;;;;;;;;;4953731;28;20058;-58
2021/10/09 05:10:44;;;;;;;84.70;21.35;;;;;;;;;;4965742;28;21232;-58
2021/10/09 05:13:10;;;;;;;80.90;22.63;;;;;;;;;;4981798;28;20100;-59
2021/10/09 05:15:39;;;;;;;86.82;22.52;;;;;;;;;;4964413;28;20038;-59
2021/10/09 05:18:10;;;;;;;58.80;19.83;;;;;;;;;;4982385;28;20035;-59
2021/10/09 05:20:41;;;;;;;62.50;21.58;;;;;;;;;;4981325;28;20369;-59
2021/10/09 05:23:08;;;;;;;65.50;21.98;;;;;;;;;;4980621;28;20063;-59
2021/10/09 05:25:36;;;;;;;66.47;22.73;;;;;;;;;;4967003;28;20045;-59
2021/10/09 05:28:14;;;;;;;60.10;21.48;;;;;;;;;;4979415;28;20494;-59
2021/10/09 05:30:46;;;;;;;67.07;23.80;;;;;;;;;;4965543;28;20050;-59
2021/10/09 05:33:36;;;;;;;75.43;23.53;;;;;;;;;;4968768;28;20054;-59
2021/10/09 05:36:02;;;;;;;91.90;24.27;;;;;;;;;;4964919;28;20049;-59
2021/10/09 05:38:30;;;;;;;73.13;23.75;;;;;;;;;;4967886;28;20039;-59
2021/10/09 05:41:00;;;;;;;69.40;24.73;;;;;;;;;;4963063;28;20049;-60
2021/10/09 05:43:27;;;;;;;83.30;25.33;;;;;;;;;;4965326;28;20064;-59
2021/10/09 05:45:55;;;;;;;74.85;25.05;;;;;;;;;;4968554;28;20027;-59
2021/10/09 05:48:20;;;;;;;84.78;25.35;;;;;;;;;;4967901;28;20733;-59
2021/10/09 05:51:03;;;;;;;83.47;23.40;;;;;;;;;;4951706;28;20030;-59
2021/10/09 05:59:35;;;;;;;80.45;26.20;;;;;;;;;;4964919;28;20042;-59
2021/10/09 07:00:48;;;;;;;78.03;27.50;;;;;;;;;;4965054;28;20039;-59
2021/10/09 07:03:18;;;;;;;89.32;27.35;;;;;;;;;;4993439;28;20872;-59
2021/10/09 07:05:43;;;;;;;79.80;24.55;;;;;;;;;;4965103;28;20584;-59
2021/10/09 07:08:10;;;;;;;83.85;27.30;;;;;;;;;;4964193;28;20129;-59
2021/10/09 07:10:42;;;;;;;79.53;25.67;;;;;;;;;;4976612;28;22122;-59
2021/10/09 07:13:13;;;;;;;71.38;26.33;;;;;;;;;;4962385;28;20050;-59
2021/10/09 07:15:39;;;;;;;76.55;25.58;;;;;;;;;;4946591;28;20043;-59
2021/10/09 07:18:05;;;;;;;70.68;24.73;;;;;;;;;;4962826;28;20041;-59
2021/10/09 07:20:35;;;;;;;78.45;26.52;;;;;;;;;;4965930;28;20035;-59
2021/10/09 07:23:05;;;;;;;74.78;25.50;;;;;;;;;;4965264;28;20046;-59
2021/10/09 07:25:34;;;;;;;79.00;24.70;;;;;;;;;;4979032;28;20159;-58
2021/10/09 07:28:02;;;;;;;63.17;23.85;;;;;;;;;;4962182;28;20571;-58
2021/10/09 07:30:28;;;;;;;61.85;22.85;;;;;;;;;;4962341;28;20113;-59
2021/10/09 07:32:54;;;;;;;69.90;23.20;;;;;;;;;;4982017;28;20058;-59
2021/10/09 07:35:19;;;;;;;78.82;27.95;;;;;;;;;;4979151;28;20038;-59
2021/10/09 07:37:45;;;;;;;68.07;25.55;;;;;;;;;;4962947;28;20046;-59
2021/10/09 07:40:11;;;;;;;61.20;24.17;;;;;;;;;;4978087;28;20027;-59
2021/10/09 07:42:36;;;;;;;61.75;24.73;;;;;;;;;;4978337;28;20037;-58
2021/10/09 07:45:05;;;;;;;71.68;24.40;;;;;;;;;;4963089;28;20087;-59
2021/10/09 07:47:33;;;;;;;70.82;24.77;;;;;;;;;;4965128;28;20022;-59
2021/10/09 07:49:59;;;;;;;61.17;23.38;;;;;;;;;;4961431;28;20183;-59
2021/10/09 07:52:25;;;;;;;58.45;22.65;;;;;;;;;;4961866;28;20137;-59
2021/10/09 07:54:55;;;;;;;58.75;21.95;;;;;;;;;;4963572;28;20026;-59
2021/10/09 07:57:20;;;;;;;64.93;22.45;;;;;;;;;;4963225;28;20038;-59
2021/10/09 07:59:48;;;;;;;52.58;23.20;;;;;;;;;;4964746;28;20045;-59
2021/10/09 08:02:21;;;;;;;54.33;22.13;;;;;;;;;;4961323;28;20031;-59
2021/10/09 08:04:46;;;;;;;59.10;22.98;;;;;;;;;;4980185;28;20042;-60
2021/10/09 08:07:12;;;;;;;58.80;22.80;;;;;;;;;;4965260;28;20041;-58
2021/10/09 08:09:37;;;;;;;58.05;23.90;;;;;;;;;;4979435;28;20031;-59
2021/10/09 08:12:03;;;;;;;55.20;22.60;;;;;;;;;;4976069;28;20833;-59
2021/10/09 08:14:29;;;;;;;53.08;22.38;;;;;;;;;;4978561;28;20054;-60
2021/10/09 08:16:56;;;;;;;68.07;23.88;;;;;;;;;;4978101;28;20038;-59
2021/10/09 08:19:22;;;;;;;52.15;22.73;;;;;;;;;;4964821;28;21916;-59
2021/10/09 08:21:48;;;;;;;52.83;22.33;;;;;;;;;;4961159;28;20038;-60
2021/10/09 08:40:29;;;;;;;54.45;24.30;;;;;;;;;;4978466;28;20442;-60
2021/10/09 08:42:54;;;;;;;59.90;22.80;;;;;;;;;;4962254;28;20030;-58
2021/10/09 08:45:23;;;;;;;57.03;23.17;;;;;;;;;;4964744;28;20034;-58
2021/10/09 08:47:51;;;;;;;59.78;22.80;;;;;;;;;;4948550;28;20085;-60
2021/10/09 08:50:16;;;;;;;47.22;21.75;;;;;;;;;;4966202;28;20038;-60
2021/10/09 08:52:58;;;;;;;60.88;24.30;;;;;;;;;;4977874;28;20076;-60
2021/10/09 08:55:26;;;;;;;61.97;22.08;;;;;;;;;;4963287;28;20070;-59
2021/10/09 08:57:51;;;;;;;54.25;23.85;;;;;;;;;;4941320;28;20034;-59
2021/10/09 09:00:23;;;;;;;60.00;23.33;;;;;;;;;;4964284;28;20042;-60
2021/10/09 09:02:52;;;;;;;58.13;22.15;;;;;;;;;;4976145;28;20049;-60
2021/10/09 09:30:31;;;;;;;52.58;22.30;;;;;;;;;;4924365;28;20030;-59
2021/10/09 09:31:08;;;;;;;44.58;20.05;;;;;;;;;;4980635;28;20050;-59
2021/10/09 09:39:16;;;;;;;44.50;18.95;;;;;;;;;;4980502;28;20061;-59
2021/10/09 09:41:21;;;;;;;38.22;18.67;;;;;;;;;;4962634;28;20125;-58
2021/10/09 09:43:51;;;;;;;43.00;19.63;;;;;;;;;;4948255;28;20027;-59
2021/10/09 09:46:18;;;;;;;36.92;19.05;;;;;;;;;;4980549;28;20138;-60
2021/10/09 09:48:45;;;;;;;37.90;17.83;;;;;;;;;;4968233;28;20141;-59
2021/10/09 09:51:11;;;;;;;32.00;16.52;;;;;;;;;;4965000;28;20541;-59
2021/10/09 09:53:40;;;;;;;34.75;17.05;;;;;;;;;;4966457;28;20034;-60
2021/10/09 09:56:06;;;;;;;34.22;17.38;;;;;;;;;;4981520;28;20080;-60
2021/10/09 09:58:38;;;;;;;31.80;16.00;;;;;;;;;;4967108;28;20030;-59
2021/10/09 10:01:11;;;;;;;28.75;15.18;;;;;;;;;;4981160;28;20038;-59
2021/10/09 10:03:44;;;;;;;30.40;15.00;;;;;;;;;;4967897;28;20034;-62
2021/10/09 10:06:15;;;;;;;34.60;15.60;;;;;;;;;;4966980;28;20567;-59
2021/10/09 10:08:41;;;;;;;32.80;16.25;;;;;;;;;;4980669;28;20109;-62
2021/10/09 10:11:08;;;;;;;30.30;15.50;;;;;;;;;;4979113;28;20038;-60
2021/10/09 10:13:37;;;;;;;27.83;14.65;;;;;;;;;;4969337;28;20050;-60
2021/10/09 10:16:06;;;;;;;32.80;14.82;;;;;;;;;;4967072;28;20034;-59
2021/10/09 10:18:44;;;;;;;35.65;15.82;;;;;;;;;;4965605;28;20190;-59
2021/10/09 10:21:10;;;;;;;33.63;14.85;;;;;;;;;;4961824;28;20042;-59
2021/10/09 10:23:41;;;;;;;31.92;15.25;;;;;;;;;;4968298;28;20022;-59
2021/10/09 10:26:23;;;;;;;27.73;13.75;;;;;;;;;;4968390;28;20536;-60
2021/10/09 10:28:58;;;;;;;35.03;15.20;;;;;;;;;;4980405;28;20077;-59
2021/10/09 10:31:27;;;;;;;26.55;12.73;;;;;;;;;;4963581;28;20042;-59
2021/10/09 10:34:16;;;;;;;28.85;13.02;;;;;;;;;;4980714;28;20038;-60
2021/10/09 10:36:44;;;;;;;26.17;13.38;;;;;;;;;;4980838;28;20402;-59
2021/10/09 10:39:10;;;;;;;25.88;14.52;;;;;;;;;;4981698;28;20046;-59
2021/10/09 10:41:39;;;;;;;29.98;13.73;;;;;;;;;;4964380;28;20078;-60
2021/10/09 10:44:08;;;;;;;23.35;14.10;;;;;;;;;;4980455;28;20026;-60
2021/10/09 10:46:55;;;;;;;24.20;13.32;;;;;;;;;;4951456;28;20064;-60
2021/10/09 10:49:41;;;;;;;27.75;13.57;;;;;;;;;;4952321;28;20018;-59
2021/10/09 10:54:38;;;;;;;25.25;12.93;;;;;;;;;;4979073;28;20034;-60
2021/10/09 10:57:06;;;;;;;23.17;13.57;;;;;;;;;;4980834;28;20043;-59
2021/10/09 10:59:32;;;;;;;27.60;13.88;;;;;;;;;;4980468;28;21059;-60
2021/10/09 11:02:09;;;;;;;23.13;12.77;;;;;;;;;;4963513;28;20038;-59
2021/10/09 11:04:59;;;;;;;23.65;13.00;;;;;;;;;;4965268;28;21023;-59
2021/10/09 11:07:27;;;;;;;23.42;12.90;;;;;;;;;;4963434;28;20030;-59
2021/10/09 11:09:55;;;;;;;22.08;12.70;;;;;;;;;;4981762;28;20025;-60
2021/10/09 11:12:41;;;;;;;29.30;12.63;;;;;;;;;;4963159;28;20051;-59
2021/10/09 11:15:46;;;;;;;27.42;12.70;;;;;;;;;;4977718;28;20038;-59
2021/10/09 11:18:04;;;;;;;20.83;10.88;;;;;;;;;;4966023;28;20113;-59
2021/10/09 11:20:32;;;;;;;20.60;11.30;;;;;;;;;;4962707;28;20041;-60
2021/10/09 11:23:01;;;;;;;24.15;12.00;;;;;;;;;;4980022;28;20038;-59
2021/10/09 11:25:28;;;;;;;21.13;11.02;;;;;;;;;;4978285;28;20034;-59
2021/10/09 11:28:00;;;;;;;19.92;10.70;;;;;;;;;;4963072;28;20032;-59
2021/10/09 11:30:26;;;;;;;23.23;11.65;;;;;;;;;;4963683;28;20022;-59
2021/10/09 11:32:55;;;;;;;20.52;10.70;;;;;;;;;;4977731;28;20022;-60
2021/10/09 11:35:31;;;;;;;19.20;10.38;;;;;;;;;;4946083;28;20160;-59
2021/10/09 11:38:00;;;;;;;19.08;10.70;;;;;;;;;;4978388;28;20050;-59
2021/10/09 11:40:32;;;;;;;21.42;10.45;;;;;;;;;;4945866;28;20522;-60
2021/10/09 11:43:12;;;;;;;23.88;9.07;;;;;;;;;;4978374;28;20069;-60
2021/10/09 11:56:08;;;;;;;19.65;8.35;;;;;;;;;;4965010;28;20310;-59
2021/10/09 11:58:49;;;;;;;16.90;8.18;;;;;;;;;;4978470;28;20038;-59
2021/10/09 12:01:24;;;;;;;18.48;7.35;;;;;;;;;;4978226;28;20031;-59
2021/10/09 12:03:54;;;;;;;16.60;7.88;;;;;;;;;;4978450;28;20830;-59
2021/10/09 12:06:20;;;;;;;17.92;8.50;;;;;;;;;;4979075;28;20488;-59
2021/10/09 12:08:49;;;;;;;17.77;7.88;;;;;;;;;;4978597;28;20041;-59
2021/10/09 12:11:24;;;;;;;19.17;8.45;;;;;;;;;;4963696;28;20030;-60
2021/10/09 12:13:53;;;;;;;18.05;8.60;;;;;;;;;;4962856;28;20058;-59
2021/10/09 12:16:28;;;;;;;14.57;8.50;;;;;;;;;;4976998;28;20549;-59
2021/10/09 12:18:58;;;;;;;15.43;9.02;;;;;;;;;;4978476;28;20046;-59
2021/10/09 12:21:31;;;;;;;19.45;7.70;;;;;;;;;;4978020;28;20050;-60
2021/10/09 12:23:59;;;;;;;14.35;8.73;;;;;;;;;;4960600;28;20042;-60
2021/10/09 12:26:29;;;;;;;16.33;7.68;;;;;;;;;;4978623;28;20049;-60
2021/10/09 12:29:04;;;;;;;11.35;7.90;;;;;;;;;;4961474;28;20034;-59
2021/10/09 12:31:31;;;;;;;18.83;8.25;;;;;;;;;;4963452;28;20064;-60
2021/10/09 12:33:56;;;;;;;15.82;7.43;;;;;;;;;;4963131;28;20034;-60
2021/10/09 12:36:34;;;;;;;14.68;7.40;;;;;;;;;;4945311;28;20034;-61
2021/10/09 12:39:19;;;;;;;17.73;7.40;;;;;;;;;;4963492;28;20125;-60
2021/10/09 12:41:47;;;;;;;18.92;7.10;;;;;;;;;;4978271;28;20114;-60
2021/10/09 12:44:12;;;;;;;13.68;7.68;;;;;;;;;;4964301;28;20042;-61
2021/10/09 12:46:42;;;;;;;15.55;6.82;;;;;;;;;;4964132;28;20038;-60
2021/10/09 12:49:08;;;;;;;13.25;7.35;;;;;;;;;;4966361;28;20117;-60
2021/10/09 12:51:38;;;;;;;21.35;8.30;;;;;;;;;;4964781;28;20022;-60
2021/10/09 12:54:07;;;;;;;20.48;7.72;;;;;;;;;;4964442;28;20383;-60
2021/10/09 12:56:33;;;;;;;16.42;7.70;;;;;;;;;;4970774;28;20157;-60
2021/10/09 12:58:59;;;;;;;18.75;6.78;;;;;;;;;;4982973;28;20132;-60
2021/10/09 13:01:24;;;;;;;15.35;6.35;;;;;;;;;;4982609;28;20450;-62
2021/10/09 13:03:52;;;;;;;15.35;8.18;;;;;;;;;;4985396;28;20038;-60
2021/10/09 13:06:21;;;;;;;22.30;7.68;;;;;;;;;;4981035;28;22108;-60
2021/10/09 13:08:51;;;;;;;16.38;6.95;;;;;;;;;;4982396;28;20038;-60
2021/10/09 13:11:22;;;;;;;14.25;7.40;;;;;;;;;;4964299;28;20398;-58
2021/10/09 13:13:48;;;;;;;11.32;6.32;;;;;;;;;;4980249;28;20050;-60
2021/10/09 13:16:13;;;;;;;9.93;6.13;;;;;;;;;;4967841;28;20035;-60
2021/10/09 13:18:42;;;;;;;10.73;6.18;;;;;;;;;;4980205;28;20030;-60
2021/10/09 13:21:07;;;;;;;17.48;6.97;;;;;;;;;;4980693;28;20033;-60
2021/10/09 13:23:33;;;;;;;16.58;6.03;;;;;;;;;;4966476;28;20410;-60
2021/10/09 13:25:59;;;;;;;14.25;7.20;;;;;;;;;;4979626;28;20394;-60
2021/10/09 13:28:29;;;;;;;16.90;6.95;;;;;;;;;;4981757;28;20792;-60
2021/10/09 13:30:55;;;;;;;16.00;6.18;;;;;;;;;;4979974;28;20559;-60
2021/10/09 13:33:21;;;;;;;12.88;7.10;;;;;;;;;;4967467;28;20023;-60
2021/10/09 13:35:48;;;;;;;10.13;6.38;;;;;;;;;;4980455;28;20104;-61
2021/10/09 13:38:14;;;;;;;19.10;7.07;;;;;;;;;;4964654;28;20034;-60
2021/10/09 13:40:41;;;;;;;12.52;6.72;;;;;;;;;;4981315;28;20054;-60
2021/10/09 13:43:11;;;;;;;18.52;7.40;;;;;;;;;;4966163;28;20030;-60
2021/10/09 13:45:37;;;;;;;12.05;6.70;;;;;;;;;;4963290;28;20031;-60
2021/10/09 13:48:02;;;;;;;12.18;6.50;;;;;;;;;;4965196;28;20026;-60
2021/10/09 13:50:33;;;;;;;16.58;6.05;;;;;;;;;;4949201;28;20041;-60
2021/10/09 13:52:59;;;;;;;8.55;5.45;;;;;;;;;;4983059;28;20031;-60
2021/10/09 13:55:24;;;;;;;12.90;6.85;;;;;;;;;;4961469;28;20042;-60
2021/10/09 13:57:52;;;;;;;15.52;6.10;;;;;;;;;;4980556;28;20150;-60
2021/10/09 14:00:17;;;;;;;12.95;7.03;;;;;;;;;;4980755;28;20031;-61
2021/10/09 14:02:46;;;;;;;15.95;6.45;;;;;;;;;;4965602;28;20023;-60
2021/10/09 14:05:12;;;;;;;14.80;6.45;;;;;;;;;;4966576;28;20050;-60
2021/10/09 14:07:40;;;;;;;13.98;6.22;;;;;;;;;;4963424;28;20084;-60
2021/10/09 14:10:05;;;;;;;14.00;6.40;;;;;;;;;;4980558;28;20042;-60
2021/10/09 14:12:31;;;;;;;13.48;5.93;;;;;;;;;;4980620;28;20719;-59
2021/10/09 14:15:03;;;;;;;17.02;7.40;;;;;;;;;;4963203;28;20045;-60
2021/10/09 14:17:31;;;;;;;15.60;7.07;;;;;;;;;;4965018;28;20034;-61
2021/10/09 14:20:00;;;;;;;10.43;6.43;;;;;;;;;;4979966;28;20041;-61
2021/10/09 14:22:29;;;;;;;15.43;6.97;;;;;;;;;;4964569;28;20034;-60
2021/10/09 14:24:54;;;;;;;16.23;6.53;;;;;;;;;;4980038;28;20104;-60
2021/10/09 14:27:23;;;;;;;14.65;6.78;;;;;;;;;;4993483;28;20493;-60
2021/10/09 14:29:50;;;;;;;17.35;7.57;;;;;;;;;;4963454;28;20125;-59
2021/10/09 14:32:18;;;;;;;13.52;6.95;;;;;;;;;;4978271;28;20032;-59
2021/10/09 14:34:46;;;;;;;9.02;6.50;;;;;;;;;;4979687;28;20041;-59
2021/10/09 14:37:11;;;;;;;19.13;7.13;;;;;;;;;;4978731;28;20108;-58
2021/10/09 14:39:37;;;;;;;16.00;7.00;;;;;;;;;;4980340;28;20240;-61
2021/10/09 14:42:04;;;;;;;21.73;6.90;;;;;;;;;;4965231;28;20975;-60
2021/10/09 14:44:32;;;;;;;19.83;7.38;;;;;;;;;;4947228;28;20137;-59
2021/10/09 14:49:35;;;;;;;15.25;6.88;;;;;;;;;;4964925;28;20129;-59
2021/10/09 15:19:15;;;;;;;12.50;7.38;;;;;;;;;;4964108;28;20050;-60
2021/10/09 15:21:43;;;;;;;16.40;7.10;;;;;;;;;;4964558;28;20078;-60
2021/10/09 15:24:08;;;;;;;16.15;7.40;;;;;;;;;;4967889;28;20038;-60
2021/10/09 15:26:33;;;;;;;16.23;7.15;;;;;;;;;;4981124;28;20037;-59
2021/10/09 15:28:59;;;;;;;16.50;7.35;;;;;;;;;;4961021;28;20156;-58
2021/10/09 15:31:27;;;;;;;16.30;7.45;;;;;;;;;;4964483;28;20037;-59
2021/10/09 15:33:53;;;;;;;17.42;8.10;;;;;;;;;;4967706;28;20038;-59
2021/10/09 15:36:21;;;;;;;18.60;7.57;;;;;;;;;;4965974;28;20430;-59
2021/10/09 15:38:46;;;;;;;17.10;7.88;;;;;;;;;;4980845;28;20121;-59
2021/10/09 15:41:16;;;;;;;15.38;7.13;;;;;;;;;;4979500;28;20030;-59
2021/10/09 15:43:44;;;;;;;17.20;7.38;;;;;;;;;;4977305;28;20060;-59
2021/10/09 15:46:12;;;;;;;22.45;7.40;;;;;;;;;;4969321;28;20603;-59
2021/10/09 15:48:37;;;;;;;17.50;8.05;;;;;;;;;;4978842;28;20046;-58
2021/10/09 15:51:03;;;;;;;16.00;7.85;;;;;;;;;;4978730;28;20367;-60
2021/10/09 15:53:34;;;;;;;18.02;7.70;;;;;;;;;;4964424;28;20497;-59
2021/10/09 15:56:02;;;;;;;24.63;8.05;;;;;;;;;;4977425;28;20065;-58
2021/10/09 15:58:32;;;;;;;15.30;7.70;;;;;;;;;;4963163;28;20044;-58
2021/10/09 16:01:00;;;;;;;19.13;7.03;;;;;;;;;;4964003;28;20050;-59
2021/10/09 16:03:30;;;;;;;28.75;12.07;;;;;;;;;;4977134;28;20096;-59
2021/10/09 16:06:01;;;;;;;19.40;8.77;;;;;;;;;;4962886;28;20054;-59
2021/10/09 16:08:27;;;;;;;17.42;8.75;;;;;;;;;;4964145;28;20280;-59
2021/10/09 16:10:52;;;;;;;29.23;8.35;;;;;;;;;;4977354;28;20167;-59
2021/10/09 16:13:28;;;;;;;21.98;8.32;;;;;;;;;;4977491;28;20047;-59
2021/10/09 16:15:56;;;;;;;18.33;8.07;;;;;;;;;;4977346;28;20065;-59
2021/10/09 16:18:26;;;;;;;18.52;7.97;;;;;;;;;;4965562;28;20038;-59
2021/10/09 16:20:51;;;;;;;17.50;8.32;;;;;;;;;;4960754;28;20169;-59
2021/10/09 16:23:21;;;;;;;19.40;8.90;;;;;;;;;;4965085;28;20049;-59
2021/10/09 16:25:52;;;;;;;16.45;9.25;;;;;;;;;;4966519;28;20038;-59
2021/10/09 16:28:20;;;;;;;23.02;9.57;;;;;;;;;;4965305;28;20035;-58
2021/10/09 16:30:48;;;;;;;28.42;8.50;;;;;;;;;;4955032;28;20038;-60
2021/10/09 16:33:15;;;;;;;19.50;8.85;;;;;;;;;;4967614;28;20077;-59
2021/10/09 16:35:40;;;;;;;18.38;8.35;;;;;;;;;;4980683;28;20165;-59
2021/10/09 16:38:07;;;;;;;20.88;9.55;;;;;;;;;;4981519;28;20752;-59
2021/10/09 16:40:32;;;;;;;25.75;9.65;;;;;;;;;;4968842;28;20039;-60
2021/10/09 16:43:01;;;;;;;21.60;9.50;;;;;;;;;;4982473;28;20041;-58
2021/10/09 16:45:27;;;;;;;27.60;10.05;;;;;;;;;;4967194;28;20176;-60
2021/10/09 16:47:55;;;;;;;21.75;10.25;;;;;;;;;;4967087;28;20513;-59
2021/10/09 16:50:20;;;;;;;22.90;11.52;;;;;;;;;;4981251;28;20026;-58
2021/10/09 16:52:46;;;;;;;25.83;10.57;;;;;;;;;;4969674;28;20046;-59
2021/10/09 16:55:14;;;;;;;32.20;10.30;;;;;;;;;;4964308;28;20054;-59
2021/10/09 16:57:44;;;;;;;25.98;10.27;;;;;;;;;;4981296;28;20034;-61
2021/10/09 17:00:09;;;;;;;24.23;10.68;;;;;;;;;;4969747;28;20035;-58
2021/10/09 17:02:37;;;;;;;21.70;10.13;;;;;;;;;;4980976;28;20043;-59
2021/10/09 17:05:04;;;;;;;24.42;10.98;;;;;;;;;;4967607;28;20035;-58
2021/10/09 17:07:29;;;;;;;25.10;10.15;;;;;;;;;;4952380;28;20556;-61
2021/10/09 17:09:55;;;;;;;29.98;11.65;;;;;;;;;;4981896;28;22132;-58
2021/10/09 17:12:28;;;;;;;25.83;12.18;;;;;;;;;;4964636;28;20050;-59